Pagrindinis puslapis
METAR-TAF:

METAR-TAF

Oro uostai :

Kittilä, Suomija

platuma: 67-42N, ilguma: 024-51E, Aukštis: 196 m

Dabartinis oras

Ataskaita buvo paskelbta 9 minutes, ne 14:20 UTC
Vėjas 8 kt iš Pietų
Temperatūra 0°C
Drėgmė 93%
Slėgis 981 hPa
Matomumas 10 km arba daugiau
Apsiniaukę ne aukštis 700 ft

METAR: EFKT 211420Z AUTO 19008KT 9999 OVC007 M00/M01 Q0981 REFZRA

Laikas: 16:29 (14:29 UTC)

Prognozė

Ataskaita buvo paskelbta 3 valandos ir 3 minutes, ne 11:26 UTC
Prognozė galioja nuo 21 metu 12 UTC su 21 metu 21 UTC
Vėjas 16 kt iš Pietų
Matomumas: 6000 m
Su prošvaistėmis ne aukštis 1000 ft
sniegas
Laikinai
nuo 21 metu 12 UTC su 21 metu 15 UTC
Vėjas 17 kt iš Pietų su gūsio iki 27 kt
Matomumas: 1400 m
ne aukštis 400 ft
sniegas
Tapsmas
nuo 21 metu 15 UTC su 21 metu 17 UTC
Matomumas: 8000 m
Su prošvaistėmis ne aukštis 500 ft
Laikinai
nuo 21 metu 17 UTC su 21 metu 21 UTC
Su prošvaistėmis ne aukštis 1200 ft

TAF: EFKT 211126Z 2112/2121 18016KT 6000 -SN BKN010 TEMPO 2112/2115 17017G27KT 1400 SN VV004 BECMG 2115/2117 8000 BKN005 TEMPO 2117/2121 BKN012

Orai ataskaitas ir orų prognozės (METAR, TAF).

turimą stotys yra geltonos ir raudonos taškus žemėlapyje.

Perkelti pele per norėdami pamatyti stoties vardą.

Tada spustelėkite, norėdami matyti oro stebėjimo ir prognozės.

Norėdami pakeisti žemėlapį: spustelėkite ant žalios mygtukų su juodo kryžiaus žemyn,; žalią mygtuką su brūkšneliu, jei norite nutolinti; arba žalių rodyklių gretimoms žemėlapius.


METAR-TAF: